Time;durP1;ratioP1;P1;durP2;ratioP2;P2;SDS_P1;SDS_P2;PMS_P1;PMS_P2;Temp;Humidity;BMP_temperature;BMP_pressure;BME280_temperature;BME280_humidity;BME280_pressure;Samples;Min_cycle;Max_cycle;Signal;HPM_P1;HPM_P2
2024/01/15 00:00:09;;;;;;;11.90;9.63;;;1.70;99.90;;;;;;5857970;23;20179;-86
2024/01/15 00:25:43;;;;;;;13.40;9.50;;;1.70;99.90;;;;;;6008773;23;20360;-86
2024/01/15 00:45:38;;;;;;;13.97;10.27;;;1.60;99.90;;;;;;5757481;24;20542;-82
2024/01/15 01:11:15;;;;;;;16.07;11.13;;;1.50;99.90;;;;;;5702972;24;20525;-84
2024/01/15 01:36:38;;;;;;;18.70;11.93;;;1.30;99.90;;;;;;6005920;23;20426;-85
2024/01/15 02:07:10;;;;;;;19.93;14.07;;;1.40;99.90;;;;;;5927289;23;20214;-83
2024/01/15 02:42:36;;;;;;;21.27;14.10;;;1.50;99.90;;;;;;5837100;24;20197;-88
2024/01/15 03:12:34;;;;;;;20.33;12.23;;;1.60;99.90;;;;;;5827345;24;20261;-84
2024/01/15 03:33:03;;;;;;;21.03;12.77;;;1.40;99.90;;;;;;5983006;23;20594;-83
2024/01/15 03:53:36;;;;;;;23.80;14.37;;;1.20;99.90;;;;;;5704047;24;20164;-84
2024/01/15 04:39:03;;;;;;;24.00;13.63;;;1.30;99.90;;;;;;5752071;24;20384;-88
2024/01/15 05:04:50;;;;;;;18.70;11.90;;;1.40;99.90;;;;;;5786162;24;20196;-86
2024/01/15 05:45:11;;;;;;;17.50;12.00;;;1.50;99.90;;;;;;5797210;24;20202;-84
2024/01/15 06:05:38;;;;;;;17.13;11.47;;;1.60;99.90;;;;;;5753169;24;20592;-85
2024/01/15 06:26:03;;;;;;;16.43;11.30;;;1.60;99.90;;;;;;5696266;24;20213;-87
2024/01/15 06:30:23;;;;;;;18.57;11.77;;;1.60;99.90;;;;;;5623049;24;20672;-86
2024/01/15 06:56:22;;;;;;;17.23;11.73;;;1.50;99.90;;;;;;5718099;24;20209;-83
2024/01/15 07:26:54;;;;;;;15.93;11.23;;;1.60;99.90;;;;;;5759276;24;20262;-84
2024/01/15 07:47:12;;;;;;;16.07;11.50;;;1.40;99.90;;;;;;5879078;24;20403;-85
2024/01/15 08:12:09;;;;;;;14.77;10.10;;;1.50;99.90;;;;;;5579191;25;20698;-84
2024/01/15 08:48:03;;;;;;;12.97;8.23;;;2.20;99.90;;;;;;5890137;23;20531;-84
2024/01/15 09:18:33;;;;;;;11.60;8.73;;;1.90;99.90;;;;;;5797373;24;20316;-84
2024/01/15 09:43:54;;;;;;;10.27;7.00;;;2.40;99.90;;;;;;5700645;24;20506;-84
2024/01/15 10:04:05;;;;;;;9.87;5.50;;;2.70;99.40;;;;;;5739971;24;20552;-86
2024/01/15 10:29:08;;;;;;;10.17;5.90;;;2.70;95.40;;;;;;5825034;24;20370;-86
2024/01/15 10:54:24;;;;;;;10.37;6.37;;;2.70;97.60;;;;;;6118973;23;20202;31
2024/01/15 11:30:13;;;;;;;12.17;7.10;;;2.80;97.60;;;;;;5888947;24;20646;-85
2024/01/15 11:55:53;;;;;;;10.13;6.60;;;2.60;99.60;;;;;;5835758;24;20719;-84
2024/01/15 12:16:02;;;;;;;13.63;7.67;;;2.40;99.90;;;;;;5837143;24;20208;-86
2024/01/15 12:41:24;;;;;;;12.50;8.53;;;2.20;99.90;;;;;;5685214;24;20170;-86
2024/01/15 13:01:35;;;;;;;15.17;8.37;;;1.80;99.90;;;;;;5562938;25;20893;-83
2024/01/15 13:21:54;;;;;;;16.70;9.17;;;1.50;99.90;;;;;;5709748;24;20173;-84
2024/01/15 14:33:16;;;;;;;11.33;7.87;;;1.50;99.90;;;;;;5779453;24;20179;-81
2024/01/15 14:37:36;;;;;;;17.57;9.53;;;1.50;99.90;;;;;;5672833;24;20778;-87
2024/01/15 14:58:15;;;;;;;14.83;9.20;;;1.20;99.90;;;;;;5798201;24;20362;-86
2024/01/15 15:18:46;;;;;;;15.87;8.53;;;1.30;99.90;;;;;;5879017;24;20162;-83
2024/01/15 15:38:59;;;;;;;11.97;8.07;;;1.40;99.90;;;;;;5699445;24;20807;-87
2024/01/15 16:24:24;;;;;;;15.70;8.57;;;1.40;99.90;;;;;;5613880;24;20722;-84
2024/01/15 17:20:32;;;;;;;8.70;5.60;;;0.60;99.90;;;;;;5700447;24;20190;-84
2024/01/15 18:21:22;;;;;;;22.37;12.53;;;0.50;99.90;;;;;;5712572;24;20240;-88
2024/01/15 18:51:33;;;;;;;20.27;11.80;;;0.70;99.90;;;;;;5714022;24;20210;-87
2024/01/15 19:12:09;;;;;;;10.93;7.40;;;0.40;99.90;;;;;;5821303;24;20185;-86
2024/01/15 19:32:18;;;;;;;8.33;5.30;;;-0.20;99.90;;;;;;5741006;24;20227;-86
2024/01/15 19:42:27;;;;;;;13.47;6.03;;;-0.50;99.90;;;;;;6145380;23;20190;-86
2024/01/15 19:57:47;;;;;;;7.33;4.97;;;-0.60;99.90;;;;;;6080210;23;20217;-86
2024/01/15 20:22:30;;;;;;;6.97;4.07;;;-0.40;99.90;;;;;;5840071;24;20197;-88
2024/01/15 22:04:07;;;;;;;7.33;3.70;;;-0.60;99.90;;;;;;5996405;23;20201;-85
2024/01/15 22:35:04;;;;;;;5.53;3.13;;;-1.00;99.90;;;;;;6147961;23;20219;-84
2024/01/15 22:39:21;;;;;;;4.33;2.93;;;-1.00;99.90;;;;;;6112996;23;20232;-84
2024/01/15 23:04:57;;;;;;;3.93;1.93;;;-1.30;99.90;;;;;;5941190;24;20971;-86
2024/01/15 23:45:22;;;;;;;3.70;2.07;;;-1.10;96.00;;;;;;5945201;24;20251;-87
